sensor_id;sensor_type;location;lat;lon;timestamp;P1;durP1;ratioP1;P2;durP2;ratioP2
22843;SDS011;11588;51.178;4.852;2023-05-18T00:01:22;9.38;;;3.28;;
22843;SDS011;11588;51.178;4.852;2023-05-18T00:03:49;12.85;;;3.63;;
22843;SDS011;11588;51.178;4.852;2023-05-18T00:06:21;11.60;;;3.13;;
22843;SDS011;11588;51.178;4.852;2023-05-18T00:08:50;7.55;;;3.22;;
22843;SDS011;11588;51.178;4.852;2023-05-18T00:11:17;9.88;;;3.38;;
22843;SDS011;11588;51.178;4.852;2023-05-18T00:13:43;9.15;;;3.33;;
22843;SDS011;11588;51.178;4.852;2023-05-18T00:16:10;9.82;;;3.20;;
22843;SDS011;11588;51.178;4.852;2023-05-18T00:18:42;8.07;;;3.10;;
22843;SDS011;11588;51.178;4.852;2023-05-18T00:21:10;7.22;;;3.35;;
22843;SDS011;11588;51.178;4.852;2023-05-18T00:23:37;10.60;;;3.30;;
22843;SDS011;11588;51.178;4.852;2023-05-18T00:26:04;11.23;;;4.43;;
22843;SDS011;11588;51.178;4.852;2023-05-18T00:28:31;11.77;;;3.67;;
22843;SDS011;11588;51.178;4.852;2023-05-18T00:30:58;8.68;;;3.60;;
22843;SDS011;11588;51.178;4.852;2023-05-18T00:33:25;12.40;;;4.03;;
22843;SDS011;11588;51.178;4.852;2023-05-18T00:35:52;7.18;;;3.35;;
22843;SDS011;11588;51.178;4.852;2023-05-18T00:38:19;7.82;;;3.60;;
22843;SDS011;11588;51.178;4.852;2023-05-18T00:40:46;12.38;;;3.35;;
22843;SDS011;11588;51.178;4.852;2023-05-18T00:43:12;10.70;;;3.45;;
22843;SDS011;11588;51.178;4.852;2023-05-18T00:45:39;12.07;;;3.70;;
22843;SDS011;11588;51.178;4.852;2023-05-18T00:48:06;14.40;;;4.57;;
22843;SDS011;11588;51.178;4.852;2023-05-18T00:50:33;10.40;;;3.80;;
22843;SDS011;11588;51.178;4.852;2023-05-18T00:53:00;11.02;;;3.65;;
22843;SDS011;11588;51.178;4.852;2023-05-18T00:55:27;10.23;;;3.63;;
22843;SDS011;11588;51.178;4.852;2023-05-18T00:57:54;9.65;;;3.40;;
22843;SDS011;11588;51.178;4.852;2023-05-18T01:00:21;9.25;;;3.20;;
22843;SDS011;11588;51.178;4.852;2023-05-18T01:02:48;8.38;;;3.35;;
22843;SDS011;11588;51.178;4.852;2023-05-18T01:05:16;11.68;;;3.63;;
22843;SDS011;11588;51.178;4.852;2023-05-18T01:07:43;12.32;;;3.45;;
22843;SDS011;11588;51.178;4.852;2023-05-18T01:10:10;8.27;;;3.45;;
22843;SDS011;11588;51.178;4.852;2023-05-18T01:12:40;10.65;;;3.17;;
22843;SDS011;11588;51.178;4.852;2023-05-18T01:15:13;6.97;;;3.78;;
22843;SDS011;11588;51.178;4.852;2023-05-18T01:17:48;6.38;;;3.33;;
22843;SDS011;11588;51.178;4.852;2023-05-18T01:20:21;8.70;;;3.45;;
22843;SDS011;11588;51.178;4.852;2023-05-18T01:25:32;11.55;;;4.03;;
22843;SDS011;11588;51.178;4.852;2023-05-18T01:28:00;14.43;;;3.92;;
22843;SDS011;11588;51.178;4.852;2023-05-18T01:30:33;11.45;;;3.78;;
22843;SDS011;11588;51.178;4.852;2023-05-18T01:33:05;8.77;;;3.53;;
22843;SDS011;11588;51.178;4.852;2023-05-18T01:35:35;12.00;;;3.70;;
22843;SDS011;11588;51.178;4.852;2023-05-18T01:38:02;10.32;;;3.60;;
22843;SDS011;11588;51.178;4.852;2023-05-18T01:40:30;9.63;;;3.58;;
22843;SDS011;11588;51.178;4.852;2023-05-18T01:42:59;10.60;;;3.42;;
22843;SDS011;11588;51.178;4.852;2023-05-18T01:45:29;9.55;;;3.40;;
22843;SDS011;11588;51.178;4.852;2023-05-18T01:47:58;9.18;;;3.67;;
22843;SDS011;11588;51.178;4.852;2023-05-18T01:50:30;10.00;;;3.90;;
22843;SDS011;11588;51.178;4.852;2023-05-18T01:53:05;11.38;;;4.07;;
22843;SDS011;11588;51.178;4.852;2023-05-18T01:58:01;8.48;;;3.45;;
22843;SDS011;11588;51.178;4.852;2023-05-18T02:00:30;15.43;;;4.20;;
22843;SDS011;11588;51.178;4.852;2023-05-18T02:02:57;13.75;;;3.80;;
22843;SDS011;11588;51.178;4.852;2023-05-18T02:05:23;12.32;;;3.70;;
22843;SDS011;11588;51.178;4.852;2023-05-18T02:07:50;10.25;;;4.05;;
22843;SDS011;11588;51.178;4.852;2023-05-18T02:10:17;9.38;;;3.67;;
22843;SDS011;11588;51.178;4.852;2023-05-18T02:12:44;10.30;;;3.58;;
22843;SDS011;11588;51.178;4.852;2023-05-18T02:15:16;10.93;;;3.65;;
22843;SDS011;11588;51.178;4.852;2023-05-18T02:17:43;11.45;;;3.53;;
22843;SDS011;11588;51.178;4.852;2023-05-18T02:20:10;8.05;;;3.67;;
22843;SDS011;11588;51.178;4.852;2023-05-18T02:22:37;7.88;;;3.30;;
22843;SDS011;11588;51.178;4.852;2023-05-18T02:25:03;10.07;;;3.70;;
22843;SDS011;11588;51.178;4.852;2023-05-18T02:27:31;7.40;;;3.55;;
22843;SDS011;11588;51.178;4.852;2023-05-18T02:29:58;11.82;;;3.53;;
22843;SDS011;11588;51.178;4.852;2023-05-18T02:32:25;9.38;;;3.40;;
22843;SDS011;11588;51.178;4.852;2023-05-18T02:34:53;13.55;;;4.40;;
22843;SDS011;11588;51.178;4.852;2023-05-18T02:37:19;11.43;;;3.63;;
22843;SDS011;11588;51.178;4.852;2023-05-18T02:39:48;8.50;;;3.88;;
22843;SDS011;11588;51.178;4.852;2023-05-18T02:42:15;11.00;;;3.45;;
22843;SDS011;11588;51.178;4.852;2023-05-18T02:44:42;9.32;;;3.15;;
22843;SDS011;11588;51.178;4.852;2023-05-18T02:47:09;9.57;;;3.80;;
22843;SDS011;11588;51.178;4.852;2023-05-18T02:49:35;6.47;;;3.47;;
22843;SDS011;11588;51.178;4.852;2023-05-18T02:52:02;9.13;;;3.63;;
22843;SDS011;11588;51.178;4.852;2023-05-18T02:54:29;10.82;;;3.50;;
22843;SDS011;11588;51.178;4.852;2023-05-18T02:56:57;11.77;;;3.70;;
22843;SDS011;11588;51.178;4.852;2023-05-18T02:59:24;6.65;;;3.70;;
22843;SDS011;11588;51.178;4.852;2023-05-18T03:01:51;10.95;;;3.42;;
22843;SDS011;11588;51.178;4.852;2023-05-18T03:04:18;11.80;;;3.83;;
22843;SDS011;11588;51.178;4.852;2023-05-18T03:06:45;10.68;;;3.75;;
22843;SDS011;11588;51.178;4.852;2023-05-18T03:09:12;9.98;;;3.80;;
22843;SDS011;11588;51.178;4.852;2023-05-18T03:11:41;8.38;;;3.33;;
22843;SDS011;11588;51.178;4.852;2023-05-18T03:14:07;7.63;;;3.22;;
22843;SDS011;11588;51.178;4.852;2023-05-18T03:16:34;10.05;;;3.72;;
22843;SDS011;11588;51.178;4.852;2023-05-18T03:19:04;10.10;;;3.53;;
22843;SDS011;11588;51.178;4.852;2023-05-18T03:21:33;7.63;;;3.50;;
22843;SDS011;11588;51.178;4.852;2023-05-18T03:24:01;12.73;;;4.10;;
22843;SDS011;11588;51.178;4.852;2023-05-18T03:26:28;5.80;;;3.40;;
22843;SDS011;11588;51.178;4.852;2023-05-18T03:28:56;7.90;;;3.88;;
22843;SDS011;11588;51.178;4.852;2023-05-18T03:31:23;8.35;;;3.70;;
22843;SDS011;11588;51.178;4.852;2023-05-18T03:33:51;9.50;;;3.63;;
22843;SDS011;11588;51.178;4.852;2023-05-18T03:36:18;7.80;;;3.40;;
22843;SDS011;11588;51.178;4.852;2023-05-18T03:38:47;11.65;;;3.80;;
22843;SDS011;11588;51.178;4.852;2023-05-18T03:41:14;10.80;;;3.47;;
22843;SDS011;11588;51.178;4.852;2023-05-18T03:43:41;11.48;;;3.80;;
22843;SDS011;11588;51.178;4.852;2023-05-18T03:46:06;11.63;;;4.35;;
22843;SDS011;11588;51.178;4.852;2023-05-18T03:48:33;9.80;;;3.42;;
22843;SDS011;11588;51.178;4.852;2023-05-18T03:51:00;10.50;;;3.80;;
22843;SDS011;11588;51.178;4.852;2023-05-18T03:53:27;8.82;;;3.65;;
22843;SDS011;11588;51.178;4.852;2023-05-18T03:55:54;8.40;;;3.80;;
22843;SDS011;11588;51.178;4.852;2023-05-18T03:58:22;9.70;;;3.85;;
22843;SDS011;11588;51.178;4.852;2023-05-18T04:00:49;12.88;;;3.90;;
22843;SDS011;11588;51.178;4.852;2023-05-18T04:03:15;9.82;;;3.90;;
22843;SDS011;11588;51.178;4.852;2023-05-18T04:05:42;10.07;;;4.15;;
22843;SDS011;11588;51.178;4.852;2023-05-18T04:08:09;8.00;;;3.55;;
22843;SDS011;11588;51.178;4.852;2023-05-18T04:10:40;8.38;;;3.88;;
22843;SDS011;11588;51.178;4.852;2023-05-18T04:13:08;7.05;;;3.55;;
22843;SDS011;11588;51.178;4.852;2023-05-18T04:15:35;10.05;;;4.15;;
22843;SDS011;11588;51.178;4.852;2023-05-18T04:18:01;11.35;;;3.97;;
22843;SDS011;11588;51.178;4.852;2023-05-18T04:20:28;10.35;;;3.88;;
22843;SDS011;11588;51.178;4.852;2023-05-18T04:22:55;9.10;;;3.50;;
22843;SDS011;11588;51.178;4.852;2023-05-18T04:25:22;10.15;;;3.63;;
22843;SDS011;11588;51.178;4.852;2023-05-18T04:27:55;10.80;;;3.97;;
22843;SDS011;11588;51.178;4.852;2023-05-18T04:30:21;10.02;;;4.05;;
22843;SDS011;11588;51.178;4.852;2023-05-18T04:32:48;11.77;;;3.70;;
22843;SDS011;11588;51.178;4.852;2023-05-18T04:35:15;7.13;;;3.63;;
22843;SDS011;11588;51.178;4.852;2023-05-18T04:37:43;14.75;;;4.50;;
22843;SDS011;11588;51.178;4.852;2023-05-18T04:40:11;10.65;;;3.78;;
22843;SDS011;11588;51.178;4.852;2023-05-18T04:42:39;10.00;;;4.00;;
22843;SDS011;11588;51.178;4.852;2023-05-18T04:45:12;10.10;;;3.67;;
22843;SDS011;11588;51.178;4.852;2023-05-18T04:47:41;8.50;;;3.58;;
22843;SDS011;11588;51.178;4.852;2023-05-18T04:50:08;9.73;;;3.67;;
22843;SDS011;11588;51.178;4.852;2023-05-18T04:52:35;8.63;;;3.72;;
22843;SDS011;11588;51.178;4.852;2023-05-18T04:55:02;13.30;;;4.38;;
22843;SDS011;11588;51.178;4.852;2023-05-18T04:57:29;9.88;;;3.83;;
22843;SDS011;11588;51.178;4.852;2023-05-18T04:59:56;8.80;;;3.60;;
22843;SDS011;11588;51.178;4.852;2023-05-18T05:02:23;8.40;;;3.83;;
22843;SDS011;11588;51.178;4.852;2023-05-18T05:04:50;8.05;;;4.13;;
22843;SDS011;11588;51.178;4.852;2023-05-18T05:07:17;6.72;;;3.50;;
22843;SDS011;11588;51.178;4.852;2023-05-18T05:09:44;7.53;;;4.00;;
22843;SDS011;11588;51.178;4.852;2023-05-18T05:12:11;12.88;;;4.22;;
22843;SDS011;11588;51.178;4.852;2023-05-18T05:14:37;8.68;;;3.78;;
22843;SDS011;11588;51.178;4.852;2023-05-18T05:17:04;8.52;;;3.97;;
22843;SDS011;11588;51.178;4.852;2023-05-18T05:19:30;9.75;;;3.63;;
22843;SDS011;11588;51.178;4.852;2023-05-18T05:21:57;8.77;;;4.10;;
22843;SDS011;11588;51.178;4.852;2023-05-18T05:24:24;9.63;;;4.10;;
22843;SDS011;11588;51.178;4.852;2023-05-18T05:26:54;11.43;;;3.90;;
22843;SDS011;11588;51.178;4.852;2023-05-18T05:29:21;11.25;;;4.00;;
22843;SDS011;11588;51.178;4.852;2023-05-18T05:31:47;10.13;;;4.13;;
22843;SDS011;11588;51.178;4.852;2023-05-18T05:34:14;12.48;;;4.28;;
22843;SDS011;11588;51.178;4.852;2023-05-18T05:36:41;8.10;;;4.00;;
22843;SDS011;11588;51.178;4.852;2023-05-18T05:39:08;9.98;;;3.90;;
22843;SDS011;11588;51.178;4.852;2023-05-18T05:41:34;8.68;;;4.22;;
22843;SDS011;11588;51.178;4.852;2023-05-18T05:44:01;11.73;;;4.70;;
22843;SDS011;11588;51.178;4.852;2023-05-18T05:46:28;11.77;;;4.35;;
22843;SDS011;11588;51.178;4.852;2023-05-18T05:48:55;11.45;;;4.68;;
22843;SDS011;11588;51.178;4.852;2023-05-18T05:51:22;9.57;;;4.20;;
22843;SDS011;11588;51.178;4.852;2023-05-18T05:53:48;9.30;;;4.22;;
22843;SDS011;11588;51.178;4.852;2023-05-18T05:56:15;11.88;;;4.38;;
22843;SDS011;11588;51.178;4.852;2023-05-18T05:58:42;8.70;;;4.43;;
22843;SDS011;11588;51.178;4.852;2023-05-18T06:01:09;9.32;;;4.78;;
22843;SDS011;11588;51.178;4.852;2023-05-18T06:03:36;9.23;;;4.80;;
22843;SDS011;11588;51.178;4.852;2023-05-18T06:06:04;9.25;;;5.00;;
22843;SDS011;11588;51.178;4.852;2023-05-18T06:08:30;11.65;;;4.72;;
22843;SDS011;11588;51.178;4.852;2023-05-18T06:10:57;9.73;;;4.97;;
22843;SDS011;11588;51.178;4.852;2023-05-18T06:13:24;11.00;;;5.05;;
22843;SDS011;11588;51.178;4.852;2023-05-18T06:15:51;12.20;;;4.97;;
22843;SDS011;11588;51.178;4.852;2023-05-18T06:18:18;8.93;;;4.35;;
22843;SDS011;11588;51.178;4.852;2023-05-18T06:20:47;11.23;;;4.80;;
22843;SDS011;11588;51.178;4.852;2023-05-18T06:23:14;12.10;;;4.85;;
22843;SDS011;11588;51.178;4.852;2023-05-18T06:25:41;11.95;;;4.90;;
22843;SDS011;11588;51.178;4.852;2023-05-18T06:28:07;11.32;;;5.35;;
22843;SDS011;11588;51.178;4.852;2023-05-18T06:30:34;9.25;;;5.00;;
22843;SDS011;11588;51.178;4.852;2023-05-18T06:33:01;8.90;;;4.82;;
22843;SDS011;11588;51.178;4.852;2023-05-18T06:35:28;15.95;;;6.10;;
22843;SDS011;11588;51.178;4.852;2023-05-18T06:37:55;14.88;;;5.68;;
22843;SDS011;11588;51.178;4.852;2023-05-18T06:40:21;10.30;;;5.82;;
22843;SDS011;11588;51.178;4.852;2023-05-18T06:42:48;12.70;;;5.63;;
22843;SDS011;11588;51.178;4.852;2023-05-18T06:45:15;13.50;;;5.85;;
22843;SDS011;11588;51.178;4.852;2023-05-18T06:47:42;12.23;;;5.65;;
22843;SDS011;11588;51.178;4.852;2023-05-18T06:50:09;12.02;;;5.30;;
22843;SDS011;11588;51.178;4.852;2023-05-18T06:52:36;13.25;;;5.78;;
22843;SDS011;11588;51.178;4.852;2023-05-18T06:55:04;11.27;;;5.35;;
22843;SDS011;11588;51.178;4.852;2023-05-18T06:57:31;11.50;;;5.43;;
22843;SDS011;11588;51.178;4.852;2023-05-18T06:59:59;10.65;;;5.90;;
22843;SDS011;11588;51.178;4.852;2023-05-18T07:02:26;14.98;;;5.75;;
22843;SDS011;11588;51.178;4.852;2023-05-18T07:04:52;12.13;;;6.70;;
22843;SDS011;11588;51.178;4.852;2023-05-18T07:07:19;10.02;;;5.55;;
22843;SDS011;11588;51.178;4.852;2023-05-18T07:09:46;13.73;;;5.93;;
22843;SDS011;11588;51.178;4.852;2023-05-18T07:12:15;12.45;;;6.55;;
22843;SDS011;11588;51.178;4.852;2023-05-18T07:14:41;17.73;;;6.00;;
22843;SDS011;11588;51.178;4.852;2023-05-18T07:17:08;12.73;;;5.80;;
22843;SDS011;11588;51.178;4.852;2023-05-18T07:19:35;18.05;;;6.13;;
22843;SDS011;11588;51.178;4.852;2023-05-18T07:22:02;17.75;;;6.07;;
22843;SDS011;11588;51.178;4.852;2023-05-18T07:24:30;15.80;;;7.05;;
22843;SDS011;11588;51.178;4.852;2023-05-18T07:26:56;11.13;;;6.10;;
22843;SDS011;11588;51.178;4.852;2023-05-18T07:29:23;16.80;;;6.65;;
22843;SDS011;11588;51.178;4.852;2023-05-18T07:31:50;9.43;;;6.38;;
22843;SDS011;11588;51.178;4.852;2023-05-18T07:34:17;8.00;;;5.45;;
22843;SDS011;11588;51.178;4.852;2023-05-18T07:36:43;10.50;;;5.10;;
22843;SDS011;11588;51.178;4.852;2023-05-18T07:39:09;11.45;;;5.47;;
22843;SDS011;11588;51.178;4.852;2023-05-18T07:41:46;13.25;;;5.70;;
22843;SDS011;11588;51.178;4.852;2023-05-18T07:44:14;9.98;;;5.93;;
22843;SDS011;11588;51.178;4.852;2023-05-18T07:46:41;12.90;;;5.10;;
22843;SDS011;11588;51.178;4.852;2023-05-18T07:49:08;10.80;;;5.22;;
22843;SDS011;11588;51.178;4.852;2023-05-18T07:51:35;9.82;;;4.85;;
22843;SDS011;11588;51.178;4.852;2023-05-18T07:54:02;11.82;;;5.22;;
22843;SDS011;11588;51.178;4.852;2023-05-18T07:56:29;9.82;;;5.60;;
22843;SDS011;11588;51.178;4.852;2023-05-18T07:58:55;12.88;;;5.10;;
22843;SDS011;11588;51.178;4.852;2023-05-18T08:01:22;12.80;;;5.35;;
22843;SDS011;11588;51.178;4.852;2023-05-18T08:03:54;14.70;;;4.30;;
22843;SDS011;11588;51.178;4.852;2023-05-18T08:06:22;12.60;;;4.82;;
22843;SDS011;11588;51.178;4.852;2023-05-18T08:08:49;12.25;;;4.75;;
22843;SDS011;11588;51.178;4.852;2023-05-18T08:11:16;12.88;;;4.82;;
22843;SDS011;11588;51.178;4.852;2023-05-18T08:13:42;8.23;;;4.85;;
22843;SDS011;11588;51.178;4.852;2023-05-18T08:16:09;13.25;;;4.80;;
22843;SDS011;11588;51.178;4.852;2023-05-18T08:18:36;10.27;;;4.20;;
22843;SDS011;11588;51.178;4.852;2023-05-18T08:21:03;10.38;;;5.05;;
22843;SDS011;11588;51.178;4.852;2023-05-18T08:23:35;7.03;;;4.10;;
22843;SDS011;11588;51.178;4.852;2023-05-18T08:26:02;10.10;;;4.45;;
22843;SDS011;11588;51.178;4.852;2023-05-18T08:28:29;11.90;;;4.45;;
22843;SDS011;11588;51.178;4.852;2023-05-18T08:30:56;10.98;;;4.80;;
22843;SDS011;11588;51.178;4.852;2023-05-18T08:33:23;14.57;;;4.13;;
22843;SDS011;11588;51.178;4.852;2023-05-18T08:35:53;9.10;;;4.07;;
22843;SDS011;11588;51.178;4.852;2023-05-18T08:38:20;9.98;;;3.85;;
22843;SDS011;11588;51.178;4.852;2023-05-18T08:43:15;8.57;;;3.50;;
22843;SDS011;11588;51.178;4.852;2023-05-18T08:45:53;8.23;;;3.70;;
22843;SDS011;11588;51.178;4.852;2023-05-18T08:48:22;11.38;;;4.22;;
22843;SDS011;11588;51.178;4.852;2023-05-18T08:50:49;12.13;;;3.72;;
22843;SDS011;11588;51.178;4.852;2023-05-18T08:53:19;17.25;;;3.50;;
22843;SDS011;11588;51.178;4.852;2023-05-18T08:55:46;8.27;;;2.88;;
22843;SDS011;11588;51.178;4.852;2023-05-18T08:58:16;7.38;;;3.30;;
22843;SDS011;11588;51.178;4.852;2023-05-18T09:00:44;8.85;;;2.90;;
22843;SDS011;11588;51.178;4.852;2023-05-18T09:03:11;11.65;;;3.55;;
22843;SDS011;11588;51.178;4.852;2023-05-18T09:05:39;11.90;;;3.90;;
22843;SDS011;11588;51.178;4.852;2023-05-18T09:08:06;9.90;;;2.67;;
22843;SDS011;11588;51.178;4.852;2023-05-18T09:10:35;8.57;;;2.90;;
22843;SDS011;11588;51.178;4.852;2023-05-18T09:13:01;8.65;;;2.90;;
22843;SDS011;11588;51.178;4.852;2023-05-18T09:15:31;7.45;;;2.70;;
22843;SDS011;11588;51.178;4.852;2023-05-18T09:17:57;7.97;;;2.70;;
22843;SDS011;11588;51.178;4.852;2023-05-18T09:20:24;7.65;;;2.83;;
22843;SDS011;11588;51.178;4.852;2023-05-18T09:22:51;6.60;;;2.63;;
22843;SDS011;11588;51.178;4.852;2023-05-18T09:25:19;10.52;;;3.53;;
22843;SDS011;11588;51.178;4.852;2023-05-18T09:27:47;8.95;;;3.30;;
22843;SDS011;11588;51.178;4.852;2023-05-18T09:30:14;5.20;;;2.88;;
22843;SDS011;11588;51.178;4.852;2023-05-18T09:32:41;4.82;;;2.65;;
22843;SDS011;11588;51.178;4.852;2023-05-18T09:35:08;9.57;;;3.53;;
22843;SDS011;11588;51.178;4.852;2023-05-18T09:37:35;8.80;;;3.63;;
22843;SDS011;11588;51.178;4.852;2023-05-18T09:40:02;6.97;;;3.63;;
22843;SDS011;11588;51.178;4.852;2023-05-18T09:42:34;11.13;;;3.72;;
22843;SDS011;11588;51.178;4.852;2023-05-18T09:45:02;9.38;;;4.50;;
22843;SDS011;11588;51.178;4.852;2023-05-18T09:47:29;7.93;;;3.75;;
22843;SDS011;11588;51.178;4.852;2023-05-18T09:50:01;9.73;;;3.88;;
22843;SDS011;11588;51.178;4.852;2023-05-18T09:52:27;10.55;;;3.33;;
22843;SDS011;11588;51.178;4.852;2023-05-18T09:54:56;9.90;;;4.07;;
22843;SDS011;11588;51.178;4.852;2023-05-18T09:57:25;8.50;;;4.25;;
22843;SDS011;11588;51.178;4.852;2023-05-18T09:59:55;9.15;;;3.88;;
22843;SDS011;11588;51.178;4.852;2023-05-18T10:02:24;7.93;;;3.22;;
22843;SDS011;11588;51.178;4.852;2023-05-18T10:04:53;9.40;;;3.75;;
22843;SDS011;11588;51.178;4.852;2023-05-18T10:07:21;7.68;;;3.20;;
22843;SDS011;11588;51.178;4.852;2023-05-18T10:09:46;7.32;;;3.22;;
22843;SDS011;11588;51.178;4.852;2023-05-18T10:12:26;9.73;;;4.20;;
22843;SDS011;11588;51.178;4.852;2023-05-18T10:14:53;10.23;;;4.40;;
22843;SDS011;11588;51.178;4.852;2023-05-18T10:17:21;7.35;;;3.38;;
22843;SDS011;11588;51.178;4.852;2023-05-18T10:19:47;9.43;;;3.67;;
22843;SDS011;11588;51.178;4.852;2023-05-18T10:22:16;9.50;;;3.38;;
22843;SDS011;11588;51.178;4.852;2023-05-18T10:24:45;9.80;;;4.05;;
22843;SDS011;11588;51.178;4.852;2023-05-18T10:27:19;10.73;;;4.32;;
22843;SDS011;11588;51.178;4.852;2023-05-18T10:29:50;8.13;;;3.90;;
22843;SDS011;11588;51.178;4.852;2023-05-18T10:32:18;7.55;;;3.70;;
22843;SDS011;11588;51.178;4.852;2023-05-18T10:34:46;10.98;;;3.58;;
22843;SDS011;11588;51.178;4.852;2023-05-18T10:37:13;9.95;;;3.53;;
22843;SDS011;11588;51.178;4.852;2023-05-18T10:39:39;6.88;;;3.55;;
22843;SDS011;11588;51.178;4.852;2023-05-18T10:42:09;8.90;;;3.30;;
22843;SDS011;11588;51.178;4.852;2023-05-18T10:44:36;7.35;;;3.08;;
22843;SDS011;11588;51.178;4.852;2023-05-18T10:47:04;8.82;;;3.55;;
22843;SDS011;11588;51.178;4.852;2023-05-18T10:49:29;11.20;;;3.53;;
22843;SDS011;11588;51.178;4.852;2023-05-18T10:51:56;8.50;;;3.92;;
22843;SDS011;11588;51.178;4.852;2023-05-18T10:54:21;11.20;;;4.45;;
22843;SDS011;11588;51.178;4.852;2023-05-18T10:56:50;8.23;;;3.42;;
22843;SDS011;11588;51.178;4.852;2023-05-18T10:59:16;7.25;;;3.20;;
22843;SDS011;11588;51.178;4.852;2023-05-18T11:01:44;7.93;;;4.43;;
22843;SDS011;11588;51.178;4.852;2023-05-18T11:04:11;8.57;;;3.92;;
22843;SDS011;11588;51.178;4.852;2023-05-18T11:06:38;10.85;;;4.55;;
22843;SDS011;11588;51.178;4.852;2023-05-18T11:09:05;9.80;;;4.63;;
22843;SDS011;11588;51.178;4.852;2023-05-18T11:14:06;5.80;;;4.40;;
22843;SDS011;11588;51.178;4.852;2023-05-18T11:16:35;8.75;;;4.50;;
22843;SDS011;11588;51.178;4.852;2023-05-18T11:19:05;8.77;;;4.13;;
22843;SDS011;11588;51.178;4.852;2023-05-18T11:24:29;10.02;;;4.20;;
22843;SDS011;11588;51.178;4.852;2023-05-18T11:26:59;9.30;;;4.25;;
22843;SDS011;11588;51.178;4.852;2023-05-18T11:29:30;10.85;;;4.78;;
22843;SDS011;11588;51.178;4.852;2023-05-18T11:37:02;6.32;;;3.20;;
22843;SDS011;11588;51.178;4.852;2023-05-18T11:39:28;7.53;;;4.00;;
22843;SDS011;11588;51.178;4.852;2023-05-18T11:41:59;10.38;;;4.10;;
22843;SDS011;11588;51.178;4.852;2023-05-18T11:44:29;8.00;;;3.88;;
22843;SDS011;11588;51.178;4.852;2023-05-18T11:46:59;10.82;;;4.03;;
22843;SDS011;11588;51.178;4.852;2023-05-18T11:49:31;8.30;;;4.00;;
22843;SDS011;11588;51.178;4.852;2023-05-18T11:54:37;6.93;;;3.85;;
22843;SDS011;11588;51.178;4.852;2023-05-18T11:57:07;8.07;;;4.47;;
22843;SDS011;11588;51.178;4.852;2023-05-18T11:59:36;13.15;;;4.40;;
22843;SDS011;11588;51.178;4.852;2023-05-18T12:02:03;9.63;;;4.20;;
22843;SDS011;11588;51.178;4.852;2023-05-18T12:04:30;11.38;;;4.00;;
22843;SDS011;11588;51.178;4.852;2023-05-18T12:06:59;10.07;;;4.55;;
22843;SDS011;11588;51.178;4.852;2023-05-18T12:09:26;9.77;;;3.88;;
22843;SDS011;11588;51.178;4.852;2023-05-18T12:11:55;9.70;;;3.75;;
22843;SDS011;11588;51.178;4.852;2023-05-18T12:14:22;8.40;;;4.20;;
22843;SDS011;11588;51.178;4.852;2023-05-18T12:16:49;7.45;;;4.40;;
22843;SDS011;11588;51.178;4.852;2023-05-18T12:19:16;4.40;;;3.38;;
22843;SDS011;11588;51.178;4.852;2023-05-18T12:21:44;10.27;;;3.95;;
22843;SDS011;11588;51.178;4.852;2023-05-18T12:24:12;11.52;;;3.92;;
22843;SDS011;11588;51.178;4.852;2023-05-18T12:26:38;8.05;;;3.88;;
22843;SDS011;11588;51.178;4.852;2023-05-18T12:29:06;10.63;;;4.10;;
22843;SDS011;11588;51.178;4.852;2023-05-18T12:31:33;6.40;;;3.75;;
22843;SDS011;11588;51.178;4.852;2023-05-18T12:34:00;10.25;;;3.65;;
22843;SDS011;11588;51.178;4.852;2023-05-18T12:36:27;7.47;;;3.88;;
22843;SDS011;11588;51.178;4.852;2023-05-18T12:38:54;13.68;;;4.00;;
22843;SDS011;11588;51.178;4.852;2023-05-18T12:41:21;9.27;;;4.07;;
22843;SDS011;11588;51.178;4.852;2023-05-18T12:43:48;7.53;;;3.83;;
22843;SDS011;11588;51.178;4.852;2023-05-18T12:46:17;8.40;;;4.38;;
22843;SDS011;11588;51.178;4.852;2023-05-18T12:48:44;8.93;;;4.13;;
22843;SDS011;11588;51.178;4.852;2023-05-18T12:53:48;9.57;;;3.47;;
22843;SDS011;11588;51.178;4.852;2023-05-18T12:56:15;8.90;;;3.72;;
22843;SDS011;11588;51.178;4.852;2023-05-18T13:01:20;6.88;;;3.72;;
22843;SDS011;11588;51.178;4.852;2023-05-18T13:03:47;9.18;;;4.05;;
22843;SDS011;11588;51.178;4.852;2023-05-18T13:06:25;9.02;;;3.83;;
22843;SDS011;11588;51.178;4.852;2023-05-18T13:08:52;8.35;;;4.10;;
22843;SDS011;11588;51.178;4.852;2023-05-18T13:11:23;11.48;;;4.03;;
22843;SDS011;11588;51.178;4.852;2023-05-18T13:16:32;8.23;;;4.13;;
22843;SDS011;11588;51.178;4.852;2023-05-18T13:19:00;7.22;;;3.22;;
22843;SDS011;11588;51.178;4.852;2023-05-18T13:21:27;5.85;;;3.63;;
22843;SDS011;11588;51.178;4.852;2023-05-18T13:23:54;9.15;;;3.55;;
22843;SDS011;11588;51.178;4.852;2023-05-18T13:26:21;6.40;;;3.72;;
22843;SDS011;11588;51.178;4.852;2023-05-18T13:28:49;8.75;;;3.83;;
22843;SDS011;11588;51.178;4.852;2023-05-18T13:31:16;7.97;;;3.80;;
22843;SDS011;11588;51.178;4.852;2023-05-18T13:33:43;6.15;;;3.15;;
22843;SDS011;11588;51.178;4.852;2023-05-18T13:36:10;7.70;;;3.22;;
22843;SDS011;11588;51.178;4.852;2023-05-18T13:38:37;7.70;;;3.40;;
22843;SDS011;11588;51.178;4.852;2023-05-18T13:41:04;6.28;;;3.25;;
22843;SDS011;11588;51.178;4.852;2023-05-18T13:43:31;8.25;;;3.78;;
22843;SDS011;11588;51.178;4.852;2023-05-18T13:45:58;10.48;;;3.70;;
22843;SDS011;11588;51.178;4.852;2023-05-18T13:48:25;8.80;;;3.47;;
22843;SDS011;11588;51.178;4.852;2023-05-18T13:50:54;6.97;;;3.28;;
22843;SDS011;11588;51.178;4.852;2023-05-18T13:53:21;9.15;;;3.47;;
22843;SDS011;11588;51.178;4.852;2023-05-18T13:55:48;7.03;;;4.30;;
22843;SDS011;11588;51.178;4.852;2023-05-18T13:58:15;9.88;;;4.00;;
22843;SDS011;11588;51.178;4.852;2023-05-18T14:00:41;9.40;;;4.43;;
22843;SDS011;11588;51.178;4.852;2023-05-18T14:03:09;9.02;;;4.00;;
22843;SDS011;11588;51.178;4.852;2023-05-18T14:05:35;5.82;;;3.30;;
22843;SDS011;11588;51.178;4.852;2023-05-18T14:08:02;9.23;;;3.58;;
22843;SDS011;11588;51.178;4.852;2023-05-18T14:10:29;7.43;;;3.55;;
22843;SDS011;11588;51.178;4.852;2023-05-18T14:12:56;8.07;;;3.75;;
22843;SDS011;11588;51.178;4.852;2023-05-18T14:15:22;8.20;;;3.45;;
22843;SDS011;11588;51.178;4.852;2023-05-18T14:17:49;8.25;;;3.67;;
22843;SDS011;11588;51.178;4.852;2023-05-18T14:20:16;8.00;;;3.70;;
22843;SDS011;11588;51.178;4.852;2023-05-18T14:22:42;8.13;;;3.67;;
22843;SDS011;11588;51.178;4.852;2023-05-18T14:25:09;7.70;;;4.10;;
22843;SDS011;11588;51.178;4.852;2023-05-18T14:27:36;6.60;;;4.47;;
22843;SDS011;11588;51.178;4.852;2023-05-18T14:30:03;9.65;;;4.05;;
22843;SDS011;11588;51.178;4.852;2023-05-18T14:32:31;10.57;;;4.30;;
22843;SDS011;11588;51.178;4.852;2023-05-18T14:34:58;12.20;;;4.38;;
22843;SDS011;11588;51.178;4.852;2023-05-18T14:37:24;11.23;;;5.25;;
22843;SDS011;11588;51.178;4.852;2023-05-18T14:39:51;11.65;;;4.80;;
22843;SDS011;11588;51.178;4.852;2023-05-18T14:42:18;6.35;;;4.05;;
22843;SDS011;11588;51.178;4.852;2023-05-18T14:44:45;7.97;;;3.78;;
22843;SDS011;11588;51.178;4.852;2023-05-18T14:47:12;9.32;;;4.80;;
22843;SDS011;11588;51.178;4.852;2023-05-18T14:49:39;6.70;;;3.67;;
22843;SDS011;11588;51.178;4.852;2023-05-18T14:52:06;6.88;;;3.88;;
22843;SDS011;11588;51.178;4.852;2023-05-18T14:54:32;9.05;;;4.30;;
22843;SDS011;11588;51.178;4.852;2023-05-18T14:56:59;6.63;;;3.97;;
22843;SDS011;11588;51.178;4.852;2023-05-18T14:59:26;8.35;;;3.67;;
22843;SDS011;11588;51.178;4.852;2023-05-18T15:01:53;8.10;;;4.13;;
22843;SDS011;11588;51.178;4.852;2023-05-18T15:04:19;6.68;;;3.97;;
22843;SDS011;11588;51.178;4.852;2023-05-18T15:06:47;8.20;;;4.07;;
22843;SDS011;11588;51.178;4.852;2023-05-18T15:09:14;8.85;;;4.40;;
22843;SDS011;11588;51.178;4.852;2023-05-18T15:11:41;7.63;;;4.25;;
22843;SDS011;11588;51.178;4.852;2023-05-18T15:14:08;7.85;;;4.32;;